D/T METAR WX W/DIR W/SPE G/SPE TEMP DEWP
16/01/19 02:50 EGOS 160250Z AUTO 22010KT 9999 BKN031/// 09/08 Q1006 RERA SW (220°) 11.5mph 9°C 8°C
16/01/19 01:50 EGOS 160150Z AUTO 21009KT 6000 RA FEW015/// BKN018/// 09/08 Q1007 RA SSW (210°) 10.4mph 9°C 8°C
16/01/19 00:50 EGOS 160050Z AUTO 20012KT 9999 BKN021/// SCT046/// BKN130/// 09/07 Q1007 SSW (200°) 13.8mph 9°C 7°C
15/01/19 23:50 EGOS 152350Z AUTO 21013KT 9999 FEW017/// BKN020/// BKN150/// 09/07 Q1008 SSW (210°) 15.0mph 9°C 7°C
15/01/19 22:50 EGOS 152250Z AUTO 23013KT 9999 SCT021/// BKN130/// 09/06 Q1009 SW (230°) 15.0mph 9°C 6°C
15/01/19 21:50 EGOS 152150Z 22011KT 9999 FEW014 BKN023 OVC150 09/07 Q1010 WHT TEMPO SCT030 BLU SW (220°) 12.7mph 9°C 7°C
15/01/19 20:50 EGOS 152050Z 21014KT 9999 BKN020 OVC150 09/06 Q1011 WHT TEMPO SCT030 BLU SSW (210°) 16.1mph 9°C 6°C
15/01/19 19:50 EGOS 151950Z 22009KT 9999 BKN022 BKN160 09/06 Q1011 WHT TEMPO SCT030 BLU SW (220°) 10.4mph 9°C 6°C
15/01/19 18:50 EGOS 151850Z 24013KT 9999 BKN023 09/06 Q1012 WHT TEMPO BKN030 BLU WSW (240°) 15.0mph 9°C 6°C
15/01/19 17:50 EGOS 151750Z 23013KT 9999 BKN023 09/06 Q1013 WHT TEMPO BKN025 BLU SW (230°) 15.0mph 9°C 6°C
15/01/19 16:50 EGOS 151650Z 23009KT 9999 BKN021 09/06 Q1013 WHT NOSIG SW (230°) 10.4mph 9°C 6°C
15/01/19 15:50 EGOS 151550Z 24014KT 9999 FEW015 BKN022 09/06 Q1014 WHT NOSIG WSW (240°) 16.1mph 9°C 6°C
15/01/19 15:12 EGOS 151512Z 23010KT 9999 BKN020 09/07 Q1014 WHT TEMPO BKN025 BLU SW (230°) 11.5mph 9°C 7°C
15/01/19 13:50 EGOS 151350Z 23007KT 9999 BKN022 09/06 Q1015 WHT TEMPO BKN025 BLU SW (230°) 8.1mph 9°C 6°C
15/01/19 12:50 EGOS 151250Z 24009KT 9999 FEW016 BKN032 09/05 Q1016 BLU NOSIG WSW (240°) 10.4mph 9°C 5°C
15/01/19 11:50 EGOS 151150Z 23007KT 9999 FEW012 BKN032 09/06 Q1017 BLU NOSIG SW (230°) 8.1mph 9°C 6°C
15/01/19 10:50 EGOS 151050Z 23010KT 9999 FEW012 BKN032 08/06 Q1018 BLU NOSIG SW (230°) 11.5mph 8°C 6°C
15/01/19 09:50 EGOS 150950Z 24009KT 9999 SCT037 08/05 Q1018 BLU NOSIG WSW (240°) 10.4mph 8°C 5°C
15/01/19 08:50 EGOS 150850Z 25006KT 9999 FEW030 BKN039 08/06 Q1018 BLU NOSIG WSW (250°) 6.9mph 8°C 6°C
15/01/19 07:50 EGOS 150750Z 22005KT 9999 BKN035 07/06 Q1018 BLU NOSIG SW (220°) 5.8mph 7°C 6°C
15/01/19 06:50 EGOS 150650Z 22010KT 9999 OVC036 07/06 Q1018 BLU SW (220°) 11.5mph 7°C 6°C
15/01/19 05:50 EGOS 150550Z 25003KT 9999 BKN040 08/06 Q1018 BLU WSW (250°) 3.5mph 8°C 6°C
15/01/19 04:50 EGOS 150450Z AUTO 26005KT 9999 OVC034/// 08/06 Q1018 W (260°) 5.8mph 8°C 6°C
15/01/19 03:50 EGOS 150350Z AUTO 22008KT 9999 OVC029/// 08/06 Q1019 SW (220°) 9.2mph 8°C 6°C
15/01/19 02:50 EGOS 150250Z AUTO 23008KT 9999 FEW021/// BKN027/// 07/06 Q1019 SW (230°) 9.2mph 7°C 6°C
15/01/19 01:50 EGOS 150150Z AUTO 20007KT 9999 FEW021/// BKN030/// 06/05 Q1020 SSW (200°) 8.1mph 6°C 5°C
15/01/19 00:50 EGOS 150050Z AUTO 22007KT 9999 BKN031/// 05/04 Q1021 SW (220°) 8.1mph 5°C 4°C
14/01/19 23:50 EGOS 142350Z AUTO 24009KT 9999 FEW048/// 05/03 Q1021 WSW (240°) 10.4mph 5°C 3°C
14/01/19 22:50 EGOS 142250Z 25011KT 9999 SCT030 BKN040 06/03 Q1021 BLU NOSIG WSW (250°) 12.7mph 6°C 3°C
14/01/19 21:50 EGOS 142150Z 24006KT 9999 SCT030 BKN050 04/02 Q1022 BLU NOSIG WSW (240°) 6.9mph 4°C 2°C
14/01/19 20:50 EGOS 142050Z 24006KT 9999 SCT040 03/01 Q1022 BLU NOSIG WSW (240°) 6.9mph 3°C 1°C
14/01/19 19:50 EGOS 141950Z 26005KT 9999 BKN035 BKN065 06/03 Q1022 BLU NOSIG W (260°) 5.8mph 6°C 3°C
14/01/19 18:50 EGOS 141850Z 24005KT 9999 SCT040 BKN065 05/03 Q1022 BLU NOSIG WSW (240°) 5.8mph 5°C 3°C
14/01/19 17:50 EGOS 141750Z 24006KT 9999 SCT045 06/02 Q1022 BLU NOSIG WSW (240°) 6.9mph 6°C 2°C
14/01/19 16:50 EGOS 141650Z 27008KT 9999 BKN045 07/03 Q1022 BLU NOSIG W (270°) 9.2mph 7°C 3°C
14/01/19 15:50 EGOS 141550Z 30007KT 9999 FEW018 BKN040 07/04 Q1022 BLU NOSIG WNW (300°) 8.1mph 7°C 4°C
14/01/19 14:50 EGOS 141450Z 30006KT 9999 FEW018 BKN038 08/04 Q1022 BLU NOSIG WNW (300°) 6.9mph 8°C 4°C
14/01/19 13:50 EGOS 141350Z 30008KT 9999 FEW020 BKN042 08/04 Q1021 BLU NOSIG WNW (300°) 9.2mph 8°C 4°C
14/01/19 12:50 EGOS 141250Z 30008KT 9999 FEW020 BKN040 09/04 Q1021 BLU NOSIG WNW (300°) 9.2mph 9°C 4°C
14/01/19 11:50 EGOS 141150Z 29010KT 9999 FEW020 BKN044 08/04 Q1021 BLU NOSIG WNW (290°) 11.5mph 8°C 4°C
14/01/19 10:50 EGOS 141050Z 30010KT 9999 FEW020 BKN045 08/04 Q1021 BLU NOSIG WNW (300°) 11.5mph 8°C 4°C
14/01/19 09:50 EGOS 140950Z 28009KT 9999 FEW020 BKN040 07/04 Q1021 BLU NOSIG W (280°) 10.4mph 7°C 4°C
14/01/19 08:50 EGOS 140850Z 30011KT 9999 FEW020 BKN035 07/03 Q1020 BLU NOSIG WNW (300°) 12.7mph 7°C 3°C
14/01/19 07:50 EGOS 140750Z 29011KT 9999 FEW020 BKN032 07/04 Q1020 BLU NOSIG WNW (290°) 12.7mph 7°C 4°C
14/01/19 06:50 EGOS 140650Z 29009KT 9999 BKN030 07/04 Q1019 BLU WNW (290°) 10.4mph 7°C 4°C
14/01/19 05:50 EGOS 140550Z 30010KT 9999 FEW022 BKN035 08/04 Q1018 BLU WNW (300°) 11.5mph 8°C 4°C
14/01/19 04:50 EGOS 140450Z AUTO 29010KT 9999 SCT025/// BKN040/// 08/04 Q1018 RERA WNW (290°) 11.5mph 8°C 4°C
14/01/19 03:50 EGOS 140350Z AUTO 30013KT 9999 -RA BKN029/// BKN036/// 08/04 Q1018 -RA WNW (300°) 15.0mph 8°C 4°C
14/01/19 02:50 EGOS 140250Z AUTO 29015KT 9999 FEW034/// SCT040/// BKN048/// 08/03 Q1017 WNW (290°) 17.3mph 8°C 3°C
14/01/19 01:50 EGOS 140150Z AUTO 29014KT 9999 BKN038/// 08/03 Q1016 WNW (290°) 16.1mph 8°C 3°C
14/01/19 00:50 EGOS 140050Z AUTO 29013KT 9999 FEW039/// BKN044/// 08/03 Q1016 RERA WNW (290°) 15.0mph 8°C 3°C
13/01/19 23:50 EGOS 132350Z AUTO 30012KT 9999 FEW033/// BKN042/// 08/03 Q1016 WNW (300°) 13.8mph 8°C 3°C
13/01/19 22:50 EGOS 132250Z AUTO 29018KT 9999 BKN044/// 08/03 Q1015 WNW (290°) 20.7mph 8°C 3°C
13/01/19 21:50 EGOS 132150Z AUTO 29017KT 9999 BKN045/// 08/04 Q1014 WNW (290°) 19.6mph 8°C 4°C
13/01/19 20:50 EGOS 132050Z AUTO 30017G30KT 9999 SCT044/// 08/03 Q1014 WNW (300°) 19.6mph 34.5mph 8°C 3°C
13/01/19 19:50 EGOS 131950Z AUTO 28015KT 9999 FEW026/// SCT033/// 08/05 Q1013 RERA W (280°) 17.3mph 8°C 5°C
13/01/19 18:50 EGOS 131850Z AUTO 29017KT 9999 FEW050/// 08/04 Q1013 RERA WNW (290°) 19.6mph 8°C 4°C
13/01/19 17:50 EGOS 131750Z AUTO 29020KT 9999 -RA FEW030/// BKN034/// 09/05 Q1013 -RA WNW (290°) 23.0mph 9°C 5°C
13/01/19 16:50 EGOS 131650Z AUTO 29020G35KT 9999 FEW031/// BKN044/// BKN050/// 11/05 Q1012 RERA WNW (290°) 23.0mph 40.3mph 11°C 5°C
13/01/19 15:50 EGOS 131550Z AUTO 28020KT 9999 FEW040/// BKN050/// BKN140/// 11/06 Q1011 W (280°) 23.0mph 11°C 6°C
13/01/19 14:50 EGOS 131450Z AUTO 30024G41KT 9999 BKN140/// 12/06 Q1011 WNW (300°) 27.6mph 47.2mph 12°C 6°C
13/01/19 13:50 EGOS 131350Z AUTO 30018KT 9999 BKN150/// 12/07 Q1011 WNW (300°) 20.7mph 12°C 7°C
13/01/19 12:50 EGOS 131250Z AUTO 28007KT 9999 BKN023/// SCT032/// 12/09 Q1012 W (280°) 8.1mph 12°C 9°C
13/01/19 11:50 EGOS 131150Z AUTO 25012KT 9999 OVC021/// 11/08 Q1012 WSW (250°) 13.8mph 11°C 8°C
13/01/19 10:50 EGOS 131050Z AUTO 26016KT 9999 BKN020/// 11/08 Q1013 W (260°) 18.4mph 11°C 8°C
13/01/19 09:50 EGOS 130950Z AUTO 26017KT 9999 BKN022/// BKN050/// 11/08 Q1013 W (260°) 19.6mph 11°C 8°C
13/01/19 08:50 EGOS 130850Z AUTO 27017KT 9999 BKN021/// 10/07 Q1013 W (270°) 19.6mph 10°C 7°C
13/01/19 07:50 EGOS 130750Z AUTO 24015KT 9999 FEW024/// BKN029/// 09/06 Q1014 WSW (240°) 17.3mph 9°C 6°C
13/01/19 06:50 EGOS 130650Z AUTO 23010KT 9999 BKN022/// SCT033/// BKN080/// 09/06 Q1014 SW (230°) 11.5mph 9°C 6°C
13/01/19 05:50 EGOS 130550Z AUTO 24010KT 9999 SCT039/// SCT150/// 09/06 Q1015 WSW (240°) 11.5mph 9°C 6°C
13/01/19 04:50 EGOS 130450Z AUTO 26010KT 9999 SCT140/// 09/06 Q1016 W (260°) 11.5mph 9°C 6°C
13/01/19 03:50 EGOS 130350Z AUTO 25009KT 9999 SCT140/// 09/07 Q1016 WSW (250°) 10.4mph 9°C 7°C
13/01/19 02:50 EGOS 130250Z AUTO 26004KT 9999 BKN023/// 08/06 Q1017 W (260°) 4.6mph 8°C 6°C
13/01/19 01:50 EGOS 130150Z AUTO 28012KT 9999 BKN023/// 10/07 Q1017 W (280°) 13.8mph 10°C 7°C
13/01/19 00:50 EGOS 130050Z AUTO 26010KT 9999 FEW110/// 09/07 Q1018 W (260°) 11.5mph 9°C 7°C
12/01/19 23:50 EGOS 122350Z AUTO 26009KT 9999 FEW150/// 09/07 Q1018 W (260°) 10.4mph 9°C 7°C
12/01/19 22:50 EGOS 122250Z AUTO 27010KT 9999 SCT140/// 10/07 Q1019 W (270°) 11.5mph 10°C 7°C
12/01/19 21:50 EGOS 122150Z AUTO 28012KT 9999 FEW041/// SCT170/// 11/07 Q1019 W (280°) 13.8mph 11°C 7°C
12/01/19 20:50 EGOS 122050Z AUTO 29014KT 9999 BKN033/// 11/07 Q1019 WNW (290°) 16.1mph 11°C 7°C
12/01/19 19:50 EGOS 121950Z AUTO 29017KT 9999 BKN044/// 11/07 Q1019 WNW (290°) 19.6mph 11°C 7°C
12/01/19 18:50 EGOS 121850Z AUTO 27017KT 9999 BKN033/// BKN100/// 10/07 Q1019 W (270°) 19.6mph 10°C 7°C
12/01/19 17:50 EGOS 121750Z AUTO 27017KT 9999 FEW035/// BKN070/// 10/07 Q1019 RERA W (270°) 19.6mph 10°C 7°C
12/01/19 16:50 EGOS 121650Z AUTO 27009KT 9999 BKN050/// 09/06 Q1020 W (270°) 10.4mph 9°C 6°C
12/01/19 15:50 EGOS 121550Z AUTO 27014KT 9999 BKN023/// SCT034/// BKN070/// 09/06 Q1020 W (270°) 16.1mph 9°C 6°C
12/01/19 14:50 EGOS 121450Z AUTO 27012KT 9999 BKN027/// SCT043/// 09/05 Q1021 W (270°) 13.8mph 9°C 5°C
12/01/19 13:50 EGOS 121350Z AUTO 28012KT 9999 SCT030/// SCT047/// BKN080/// 10/06 Q1021 W (280°) 13.8mph 10°C 6°C
12/01/19 12:50 EGOS 121250Z AUTO 27010KT 9999 BKN029/// BKN060/// 09/06 Q1021 W (270°) 11.5mph 9°C 6°C
12/01/19 11:50 EGOS 121150Z AUTO 28012KT 9999 FEW030/// SCT034/// BKN120/// 09/06 Q1022 W (280°) 13.8mph 9°C 6°C
12/01/19 10:50 EGOS 121050Z AUTO 29010KT 9999 FEW031/// BKN140/// 09/06 Q1022 WNW (290°) 11.5mph 9°C 6°C
12/01/19 09:50 EGOS 120950Z AUTO 29013KT 9999 FEW027/// BKN160/// 09/06 Q1022 WNW (290°) 15.0mph 9°C 6°C
12/01/19 08:50 EGOS 120850Z AUTO 30007KT 9999 SCT040/// BKN150/// 09/07 Q1022 RERA WNW (300°) 8.1mph 9°C 7°C
12/01/19 07:50 EGOS 120750Z AUTO 31010KT 3400 +RA SCT010/// BKN017/// 09/08 Q1022 +RA NW (310°) 11.5mph 9°C 8°C
12/01/19 06:50 EGOS 120650Z AUTO 25009KT 9999 BKN023/// SCT037/// 09/07 Q1022 WSW (250°) 10.4mph 9°C 7°C
12/01/19 05:50 EGOS 120550Z AUTO 24013KT 9999 BKN023/// 09/07 Q1022 WSW (240°) 15.0mph 9°C 7°C
12/01/19 04:50 EGOS 120450Z AUTO 24013KT 9999 BKN024/// 09/07 Q1023 WSW (240°) 15.0mph 9°C 7°C
12/01/19 03:50 EGOS 120350Z AUTO 24012KT 9999 SCT012/// SCT016/// BKN025/// 09/07 Q1024 WSW (240°) 13.8mph 9°C 7°C
12/01/19 02:50 EGOS 120250Z AUTO 26011KT 9999 SCT019/// BKN027/// 08/06 Q1025 W (260°) 12.7mph 8°C 6°C
12/01/19 01:50 EGOS 120150Z AUTO 24011KT 9999 OVC019/// 09/07 Q1025 WSW (240°) 12.7mph 9°C 7°C
12/01/19 00:50 EGOS 120050Z AUTO 22005KT 9999 BKN018/// SCT026/// 08/06 Q1026 SW (220°) 5.8mph 8°C 6°C
11/01/19 23:50 EGOS 112350Z AUTO 25008KT 9999 BKN024/// 08/06 Q1027 WSW (250°) 9.2mph 8°C 6°C
11/01/19 22:50 EGOS 112250Z AUTO 25005KT 9999 OVC030/// 07/05 Q1028 WSW (250°) 5.8mph 7°C 5°C
11/01/19 21:50 EGOS 112150Z AUTO 25007KT 9999 FEW026/// BKN033/// 08/05 Q1029 WSW (250°) 8.1mph 8°C 5°C
11/01/19 20:50 EGOS 112050Z AUTO 25006KT 9999 OVC033/// 07/05 Q1029 WSW (250°) 6.9mph 7°C 5°C
11/01/19 19:50 EGOS 111950Z AUTO 26006KT 9999 OVC035/// 07/05 Q1029 W (260°) 6.9mph 7°C 5°C
11/01/19 18:50 EGOS 111850Z AUTO 26006KT 9999 OVC034/// 07/04 Q1030 W (260°) 6.9mph 7°C 4°C
11/01/19 17:50 EGOS 111750Z AUTO 26006KT 9999 OVC033/// 08/04 Q1030 W (260°) 6.9mph 8°C 4°C
11/01/19 16:50 EGOS 111650Z 26005KT 9999 BKN038 07/05 Q1030 BLU NOSIG W (260°) 5.8mph 7°C 5°C
11/01/19 15:50 EGOS 111550Z 28004KT 9999 BKN032 08/04 Q1030 BLU NOSIG W (280°) 4.6mph 8°C 4°C
11/01/19 14:50 EGOS 111450Z 29004KT 9999 BKN030 08/05 Q1031 BLU NOSIG WNW (290°) 4.6mph 8°C 5°C
11/01/19 13:50 EGOS 111350Z 29004KT 9999 OVC028 08/05 Q1031 BLU NOSIG WNW (290°) 4.6mph 8°C 5°C
11/01/19 12:50 EGOS 111250Z 31004KT 9999 FEW010 OVC028 08/05 Q1031 BLU NOSIG NW (310°) 4.6mph 8°C 5°C
11/01/19 11:50 EGOS 111150Z 32006KT 9999 FEW010 OVC028 07/05 Q1032 BLU NOSIG NW (320°) 6.9mph 7°C 5°C
11/01/19 10:50 EGOS 111050Z 24002KT 9999 FEW004 OVC028 07/06 Q1032 BLU NOSIG WSW (240°) 2.3mph 7°C 6°C
11/01/19 09:50 EGOS 110950Z 27003KT 9999 7000N BR FEW010 OVC028 06/06 Q1032 WHT TEMPO 9999 NSW BLU BR W (270°) 3.5mph 6°C 6°C
11/01/19 09:25 EGOS 110925Z 28003KT 9999 FEW010 BKN031 06/06 Q1032 BLU TEMPO 5000 -DZ SCT020 WHT W (280°) 3.5mph 6°C 6°C
11/01/19 09:07 EGOS 110907Z 29005KT 9999 6000N -DZ FEW012 SCT021 OVC030 06/06 Q1032 WHT TEMPO 9999 NSW BKN030 BLU -DZ WNW (290°) 5.8mph 6°C 6°C
11/01/19 08:50 EGOS 110850Z 33003KT 9999 -DZ FEW010 BKN028 06/05 Q1031 BLU NOSIG -DZ NNW (330°) 3.5mph 6°C 5°C
11/01/19 07:50 EGOS 110750Z 32005KT 9999 FEW012 BKN028 06/05 Q1031 BLU NOSIG NW (320°) 5.8mph 6°C 5°C
11/01/19 06:50 EGOS 110650Z 32004KT 9999 BKN032 OVC040 06/05 Q1031 BLU NW (320°) 4.6mph 6°C 5°C
11/01/19 05:50 EGOS 110550Z 32007KT 9999 BKN035 06/05 Q1030 BLU NW (320°) 8.1mph 6°C 5°C
11/01/19 04:50 EGOS 110450Z AUTO 31006KT 9999 BKN034/// BKN041/// 07/06 Q1031 NW (310°) 6.9mph 7°C 6°C
11/01/19 03:50 EGOS 110350Z AUTO 31008KT 9999 OVC041/// 07/06 Q1031 NW (310°) 9.2mph 7°C 6°C
11/01/19 02:50 EGOS 110250Z AUTO 31006KT 9999 BKN044/// SCT050/// 06/05 Q1031 NW (310°) 6.9mph 6°C 5°C
11/01/19 01:50 EGOS 110150Z AUTO 32005KT 9999 BKN190/// 05/04 Q1031 NW (320°) 5.8mph 5°C 4°C
11/01/19 00:50 EGOS 110050Z AUTO 31006KT 9999 FEW044/// SCT050/// 06/04 Q1031 RERA NW (310°) 6.9mph 6°C 4°C
10/01/19 23:50 EGOS 102350Z AUTO 30008KT 9999 -RA BKN048/// 07/04 Q1031 -RA WNW (300°) 9.2mph 7°C 4°C
10/01/19 22:50 EGOS 102250Z AUTO 31006KT 9999 BKN046/// 07/05 Q1031 NW (310°) 6.9mph 7°C 5°C
10/01/19 21:50 EGOS 102150Z AUTO 31005KT 9999 BKN042/// 07/04 Q1031 NW (310°) 5.8mph 7°C 4°C
10/01/19 20:50 EGOS 102050Z AUTO 30006KT 9999 BKN039/// BKN044/// 08/05 Q1031 WNW (300°) 6.9mph 8°C 5°C
10/01/19 19:50 EGOS 101950Z AUTO 30006KT 9999 BKN040/// 08/05 Q1031 WNW (300°) 6.9mph 8°C 5°C
10/01/19 18:50 EGOS 101850Z AUTO 31006KT 9999 BKN043/// 08/06 Q1031 NW (310°) 6.9mph 8°C 6°C
10/01/19 17:50 EGOS 101750Z AUTO 32006KT 9999 SCT006/// BKN050/// 08/08 Q1031 RERA NW (320°) 6.9mph 8°C 8°C
10/01/19 16:50 EGOS 101650Z 27004KT 3000 DZ OVC004 07/06 Q1030 YLO2 TEMPO 4500 BR OVC005 YLO1 DZ W (270°) 4.6mph 7°C 6°C
10/01/19 15:50 EGOS 101550Z 26004KT 9999 4000N -DZ OVC005 06/06 Q1030 YLO1 TEMPO 3500 SCT003 YLO2 -DZ W (260°) 4.6mph 6°C 6°C
10/01/19 14:50 EGOS 101450Z 30003KT 9999 4500N BR OVC005 07/06 Q1030 YLO1 TEMPO 3500 -DZ SCT003 YLO2 BR WNW (300°) 3.5mph 7°C 6°C
10/01/19 14:21 EGOS 101421Z 30002KT 9999 3000N BR OVC003 06/06 Q1030 YLO2 TEMPO 5000 BR BKN005 YLO1 BR WNW (300°) 2.3mph 6°C 6°C
10/01/19 13:50 EGOS 101350Z 30004KT 9999 4000N OVC003 06/05 Q1031 YLO2 TEMPO 5000 -DZ BKN005 YLO1 WNW (300°) 4.6mph 6°C 5°C
10/01/19 13:10 EGOS 101310Z 29002KT 9999 4000N -DZ OVC004 05/05 Q1031 YLO2 TEMPO 6000 -DZ BKN005 YLO1 -DZ WNW (290°) 2.3mph 5°C 5°C
10/01/19 12:50 EGOS 101250Z 29004KT 8000 5000N -DZ BKN004 OVC008 05/04 Q1031 YLO2 TEMPO 4000 -DZ YLO2 -DZ WNW (290°) 4.6mph 5°C 4°C
10/01/19 11:50 EGOS 101150Z 29004KT 9999 7000N FEW005 OVC006 05/04 Q1031 YLO1 TEMPO 4000 -DZ BKN004 YLO2 WNW (290°) 4.6mph 5°C 4°C
10/01/19 11:38 EGOS 101138Z 27004KT 9999 OVC006 05/03 Q1031 YLO1 NOSIG W (270°) 4.6mph 5°C 3°C
10/01/19 10:50 EGOS 101050Z 24005KT 9999 OVC008 05/03 Q1031 GRN TEMPO SCT006 BKN008 YLO1 WSW (240°) 5.8mph 5°C 3°C
10/01/19 09:50 EGOS 100950Z 26006KT 9999 BKN009 OVC016 03/01 Q1031 GRN NOSIG W (260°) 6.9mph 3°C 1°C
10/01/19 08:50 EGOS 100850Z 26005KT 9999 -DZ OVC009 02/01 Q1031 GRN NOSIG -DZ W (260°) 5.8mph 2°C 1°C